• Join FlightAware (Why Join?)
  • Login
  • US Flag 
12:42PM EDT


 

Airport Tracker/Info


-or-


 

Live Flight TrackerFlight Track Log ✈ CSN6406 ✈ 27-Apr-2014 ✈ ZYTL / DLC - ZSJN / TNA

Flight Track Log - Related Links

Times and Time Zones

All times are in EDT time to prevent confusion due to time zone crossing. See the CSN6406 flight status page for this flight to view local times or setup timezone preferences in your user account.

Time Position Orientation Groundspeed Altitude Reporting Facility
EDT Latitude Longitude Course Direction KTS MPH feet Rate Location/Type
02:43AM 38.8103 121.3654 223° Southwest 370 426 21,700  Level FlightAware ADS-B (ZSQD / TAO)
02:44AM 38.7561 121.3012 223° Southwest 370 426 21,700  Level FlightAware ADS-B (ZSQD / TAO)
02:45AM 38.7295 121.2701 223° Southwest 370 426 21,700  Level FlightAware ADS-B (ZSQD / TAO)
02:46AM 38.6408 121.1680 223° Southwest 371 427 21,700  Level FlightAware ADS-B (ZSQD / TAO)
02:46AM 38.6036 121.1235 223° Southwest 370 426 21,700  Level FlightAware ADS-B (ZSQD / TAO)
02:47AM 38.5655 121.0795 223° Southwest 370 426 21,700  Level FlightAware ADS-B (ZSQD / TAO)
02:47AM 38.5264 121.0354 223° Southwest 370 426 21,700  Level FlightAware ADS-B (ZSQD / TAO)
02:48AM 38.4888 120.9912 223° Southwest 371 427 21,700  Level FlightAware ADS-B (ZSQD / TAO)
02:48AM 38.4500 120.9471 223° Southwest 372 428 21,700  Level FlightAware ADS-B (ZSQD / TAO)
02:49AM 38.4113 120.9030 222° Southwest 372 428 21,700  Level FlightAware ADS-B (ZSQD / TAO)
02:49AM 38.3755 120.8601 225° Southwest 374 430 21,700  Level FlightAware ADS-B (ZSQD / TAO)
02:50AM 38.3308 120.7944 231° Southwest 375 432 21,700  Level FlightAware ADS-B (ZSQD / TAO)
02:50AM 38.3098 120.7620 231° Southwest 375 432 21,700  Level FlightAware ADS-B (ZSQD / TAO)
02:51AM 38.2756 120.7092 231° Southwest 375 432 21,700 540 Level FlightAware ADS-B (ZSQD / TAO)
02:51AM 38.2288 120.6375 231° Southwest 377 434 22,400 1,560 Climbing FlightAware ADS-B (ZSQD / TAO)
02:52AM 38.1949 120.5860 231° Southwest 383 441 23,500 960 Climbing FlightAware ADS-B (ZSQD / TAO)
02:52AM 38.1490 120.5165 231° Southwest 385 443 23,600 60 Climbing FlightAware ADS-B (ZSQD / TAO)
02:53AM 38.1148 120.4641 231° Southwest 384 442 23,600  Level FlightAware ADS-B (ZSQD / TAO)
02:53AM 38.0821 120.4139 231° Southwest 384 442 23,600  Level FlightAware ADS-B (ZSQD / TAO)
02:54AM 38.0464 120.3603 231° Southwest 384 442 23,600  Level FlightAware ADS-B (ZSQD / TAO)
02:54AM 38.0123 120.3085 231° Southwest 384 442 23,600  Level FlightAware ADS-B (ZSQD / TAO)
02:55AM 37.9797 120.2602 231° Southwest 383 441 23,600  Level FlightAware ADS-B (ZSQD / TAO)
02:55AM 37.9436 120.2050 231° Southwest 384 442 23,600  Level FlightAware ADS-B (ZSQD / TAO)
02:56AM 37.9095 120.1532 230° Southwest 385 443 23,600  Level FlightAware ADS-B (ZSQD / TAO)
02:56AM 37.8777 120.1067 230° Southwest 385 443 23,600  Level FlightAware ADS-B (ZSQD / TAO)
02:57AM 37.8401 120.0496 230° Southwest 385 443 23,600  Level FlightAware ADS-B (ZSQD / TAO)
02:57AM 37.8056 119.9980 230° Southwest 385 443 23,600  Level FlightAware ADS-B (ZSQD / TAO)
02:58AM 37.7710 119.9463 230° Southwest 384 442 23,600  Level FlightAware ADS-B (ZSQD / TAO)
02:58AM 37.7364 119.8948 230° Southwest 384 442 23,600  Level FlightAware ADS-B (ZSQD / TAO)
02:59AM 37.7021 119.8435 230° Southwest 383 441 23,600  Level FlightAware ADS-B (ZSQD / TAO)
02:59AM 37.6678 119.7921 230° Southwest 383 441 23,600  Level FlightAware ADS-B (ZSQD / TAO)
03:00AM 37.6437 119.7531 243° Southwest 388 447 23,600  Level FlightAware ADS-B (ZSQD / TAO)
03:00AM 37.6360 119.7278 255° West 392 451 23,600  Level FlightAware ADS-B (ZSQD / TAO)
03:00AM 37.6315 119.6800 267° West 397 457 23,600  Level FlightAware ADS-B (ZSQD / TAO)
03:01AM 37.6313 119.5520 269° West 400 460 23,600  Level FlightAware ADS-B (ZSQD / TAO)
03:02AM 37.6264 119.4613 266° West 400 460 23,600  Level FlightAware ADS-B (ZSQD / TAO)
03:02AM 37.6217 119.3893 266° West 400 460 23,600  Level FlightAware ADS-B (ZSQD / TAO)
03:03AM 37.6170 119.3195 266° West 400 460 23,600  Level FlightAware ADS-B (ZSQD / TAO)
03:03AM 37.6122 119.2497 265° West 400 460 23,600  Level FlightAware ADS-B (ZSQD / TAO)
03:04AM 37.6073 119.1802 265° West 399 459 23,600  Level FlightAware ADS-B (ZSQD / TAO)
03:04AM 37.5998 119.1110 259° West 398 458 23,600  Level FlightAware ADS-B (ZSQD / TAO)
03:05AM 37.5889 119.0426 259° West 398 458 23,600  Level FlightAware ADS-B (ZSQD / TAO)
03:05AM 37.5781 118.9743 259° West 398 458 23,600  Level FlightAware ADS-B (ZSQD / TAO)
03:06AM 37.5673 118.9060 259° West 399 459 23,600 -360 Level FlightAware ADS-B (ZSQD / TAO)
03:06AM 37.5570 118.8400 259° West 395 455 23,300 -840 Descending FlightAware ADS-B (ZSQD / TAO)
03:07AM 37.5466 118.7756 259° West 383 441 22,800 -1,020 Descending FlightAware ADS-B (ZSQD / TAO)
03:07AM 37.5361 118.7084 259° West 376 433 22,300 -1,020 Descending FlightAware ADS-B (ZSQD / TAO)
03:08AM 37.5264 118.6485 259° West 377 434 21,800 -1,020 Descending FlightAware ADS-B (ZSQD / TAO)
03:08AM 37.5173 118.5922 259° West 378 435 21,400 -1,020 Descending FlightAware ADS-B (ZSQD / TAO)
03:09AM 37.5421 118.7472 259° West 381 438 20,800 -660 Descending FlightAware ADS-B
03:11AM 37.4638 118.2615 259° West 352 405 19,700 -540 Descending FlightAware ADS-B
03:11AM 37.4621 118.2515 259° West 352 405 19,700  Level FlightAware ADS-B
03:14AM 37.3365 118.0340 234° Southwest  Level Estimated
03:15AM 37.2840 117.9436 234° Southwest  Level Estimated
03:16AM 37.2315 117.8534 234° Southwest  Level Estimated
03:17AM 37.1789 117.7632 234° Southwest  Level Estimated
03:18AM 37.1262 117.6732 234° Southwest  Level Estimated
03:19AM 37.0735 117.5833 234° Southwest  Level Estimated
03:20AM 37.0207 117.4936 234° Southwest  Level Estimated